Watson Lake Airport
CYQH : now visible

Airfield :











YOU CAN JOIN US ON...

 
LOGIN :

Register | Disclaimer

   EN    FR    IT 

 









Legend :    VFR   Marginal VFR   IFR   Intensive IFR   Very Intensive IFR
Visi :
Ceiling :
>= 8 km
>= 3000ft
5 to 8 km
1000 to 3000 ft
1500m to 5 km
500 to 1000 ft
800 to 1500m
200 to 500 ft
< 800m
< 200 ft
Symbols :   Thunderstorms  Fog  Heavy snow  Heavy precipitations  Wind > 20 kt






- Airport Elevation : 2255 ft
- IATA code : YQH


CYQH - Watson Lake

CURRENT METAR :
  • 170500Z 15004KT 20SM OVC180 07/01 A2965 RMK AC8 SLP066

EXPIRED METARs :
  • 170400Z 13005KT 20SM FEW090 OVC180 07/01 A2967 RMK AC2AC6 SLP074
  • 170300Z 16004KT 120V200 30SM SCT060 BKN090 OVC180 08/02 A2969 RMK SC3AC3AC2 SLP082

TAF TAF CYQH
Valid from the 17 at 06:00 until the 17 at 18:00 UTC


170540Z 1706/1718 15005KT P6SM SCT050 BKN180
TEMPO 1706/1709 BKN050
FM170900 09005KT P6SM BKN050 OVC180
TEMPO 1709/1718 SCT050 RMK NXT FCST BY 171200Z
CZEG FIR / North America



MET'MAP, your aeronautical weather chart ! - Copyright ORBIFLY December 2007 - Disclaimer

ORBIFLY MET'MAP TEAM :

Programming & Development : Alexandra Zaïnal
Concept & original design : Baudouin d'Aumeries
Assistance for programming : Marc-Olivier Méhu
Technical & hardware support : Manuel Goepfert

Contact : metmap@orbifly.com




SOURCES & CREDITS :

   NOAA       Earth
Advisory